createdAt,value
2017-05-03T00:00:41.973Z,17
2017-05-03T00:10:41.947Z,19
2017-05-03T00:20:41.926Z,18
2017-05-03T00:30:42.055Z,19
2017-05-03T00:40:41.972Z,19
2017-05-03T00:50:41.943Z,21
2017-05-03T01:00:41.977Z,19
2017-05-03T01:10:41.991Z,21
2017-05-03T01:20:42.037Z,19
2017-05-03T01:30:42.013Z,19
2017-05-03T01:40:42.014Z,19
2017-05-03T01:50:42.031Z,18
2017-05-03T02:00:42.020Z,19
2017-05-03T02:10:42.017Z,18
2017-05-03T02:20:42.111Z,17
2017-05-03T02:30:42.426Z,18
2017-05-03T02:40:42.035Z,19
2017-05-03T02:50:42.063Z,18
2017-05-03T03:00:42.176Z,19
2017-05-03T03:10:42.092Z,19
2017-05-03T03:20:42.071Z,19
2017-05-03T03:30:42.071Z,19
2017-05-03T03:40:42.079Z,23
2017-05-03T03:50:42.116Z,20
2017-05-03T04:00:42.124Z,22
2017-05-03T04:10:42.127Z,23
2017-05-03T04:20:42.121Z,24
2017-05-03T04:30:42.207Z,25
2017-05-03T04:40:42.134Z,22
2017-05-03T04:50:42.118Z,23
2017-05-03T05:00:42.170Z,23
2017-05-03T05:10:42.292Z,24
2017-05-03T05:20:42.239Z,26
2017-05-03T05:30:42.163Z,25
2017-05-03T05:40:42.175Z,26
2017-05-03T05:50:42.322Z,27
2017-05-03T06:00:42.207Z,24
2017-05-03T06:10:42.226Z,25
2017-05-03T06:20:42.201Z,27
2017-05-03T06:30:42.237Z,25
2017-05-03T06:40:42.328Z,23
2017-05-03T06:50:42.303Z,23
2017-05-03T07:00:42.472Z,21
2017-05-03T07:10:42.259Z,20
2017-05-03T07:20:42.438Z,19
2017-05-03T07:30:42.362Z,17
2017-05-03T07:40:42.347Z,16
2017-05-03T07:50:42.325Z,14
2017-05-03T08:00:54.543Z,13
2017-05-03T08:10:42.293Z,14
2017-05-03T08:20:42.402Z,13
2017-05-03T08:30:42.438Z,15
2017-05-03T08:40:42.841Z,13
2017-05-03T08:50:42.317Z,11
2017-05-03T09:00:42.549Z,11
2017-05-03T09:10:42.309Z,10
2017-05-03T09:20:42.361Z,9
2017-05-03T09:30:42.328Z,10
2017-05-03T09:40:42.405Z,10
2017-05-03T09:50:42.326Z,9
2017-05-03T10:00:42.389Z,10
2017-05-03T10:10:42.387Z,10
2017-05-03T10:20:42.341Z,9
2017-05-03T10:30:42.328Z,10
2017-05-03T10:40:42.310Z,11
2017-05-03T10:50:42.328Z,11
2017-05-03T11:00:42.372Z,11
2017-05-03T11:10:42.418Z,10
2017-05-03T11:20:42.389Z,11
2017-05-03T11:30:42.351Z,11
2017-05-03T11:40:42.345Z,11
2017-05-03T11:50:42.329Z,11
2017-05-03T12:00:42.331Z,11
2017-05-03T12:10:42.403Z,12
2017-05-03T12:20:42.322Z,11
2017-05-03T12:30:42.338Z,13
2017-05-03T12:40:42.335Z,13
2017-05-03T12:50:42.434Z,13
2017-05-03T13:00:42.350Z,11
2017-05-03T13:10:42.303Z,12
2017-05-03T13:20:42.322Z,13
2017-05-03T13:30:42.348Z,13
2017-05-03T13:40:44.702Z,13
2017-05-03T13:50:42.444Z,14
2017-05-03T14:00:43.026Z,13
2017-05-03T14:10:42.482Z,13
2017-05-03T14:20:42.385Z,15
2017-05-03T14:30:42.459Z,14
2017-05-03T14:40:42.641Z,13
2017-05-03T14:50:42.549Z,14
2017-05-03T15:00:42.564Z,16
2017-05-03T15:10:42.506Z,16
2017-05-03T15:20:42.469Z,15
2017-05-03T15:30:42.635Z,14
2017-05-03T15:40:42.446Z,15
2017-05-03T15:50:42.512Z,14
2017-05-03T16:00:42.752Z,15
2017-05-03T16:10:42.512Z,18
2017-05-03T16:20:42.442Z,19
2017-05-03T16:30:42.440Z,20
2017-05-03T16:40:42.480Z,19
2017-05-03T16:50:42.380Z,20
2017-05-03T17:00:42.532Z,22
2017-05-03T17:10:42.437Z,21
2017-05-03T17:20:42.538Z,19
2017-05-03T17:30:42.537Z,21
2017-05-03T17:40:42.413Z,20
2017-05-03T17:50:42.530Z,20
2017-05-03T18:00:42.599Z,22
2017-05-03T18:10:42.376Z,22
2017-05-03T18:20:42.442Z,7
2017-05-03T18:30:42.372Z,8
2017-05-03T18:40:42.401Z,8
2017-05-03T18:50:42.431Z,8
2017-05-03T19:00:42.453Z,9
2017-05-03T19:10:42.484Z,8
2017-05-03T19:20:43.087Z,11
2017-05-03T19:30:42.459Z,13
2017-05-03T19:40:42.866Z,13
2017-05-03T19:50:42.612Z,10
2017-05-03T20:00:42.579Z,12
2017-05-03T20:10:42.484Z,19
2017-05-03T20:20:42.461Z,21
2017-05-03T20:30:43.570Z,24
2017-05-03T20:40:42.676Z,24
2017-05-03T20:50:42.500Z,26
2017-05-03T21:00:42.624Z,29
2017-05-03T21:10:43.861Z,26
2017-05-03T21:20:42.793Z,30
2017-05-03T21:30:43.384Z,27
2017-05-03T21:40:42.859Z,28
2017-05-03T21:50:43.994Z,31
2017-05-03T22:00:43.125Z,33
2017-05-03T22:10:44.170Z,32
2017-05-03T22:20:42.349Z,29
2017-05-03T22:30:42.427Z,30
2017-05-03T22:40:42.342Z,29
2017-05-03T22:50:42.449Z,27
2017-05-03T23:00:42.388Z,27
2017-05-03T23:10:42.385Z,26
2017-05-03T23:20:42.448Z,24
2017-05-03T23:30:42.345Z,25
2017-05-03T23:40:42.325Z,24
2017-05-03T23:50:42.316Z,23
